createdAt,value
2019-05-09T00:00:53.219Z,29.70
2019-05-09T00:03:24.094Z,30.20
2019-05-09T00:05:56.165Z,30.65
2019-05-09T00:08:26.331Z,31.77
2019-05-09T00:10:57.078Z,30.60
2019-05-09T00:16:23.527Z,30.27
2019-05-09T00:18:54.245Z,29.30
2019-05-09T00:21:26.104Z,29.98
2019-05-09T00:23:57.369Z,29.42
2019-05-09T00:26:27.524Z,30.35
2019-05-09T00:29:05.781Z,29.25
2019-05-09T00:31:43.861Z,29.65
2019-05-09T00:34:24.937Z,30.05
2019-05-09T00:36:55.575Z,29.90
2019-05-09T00:39:28.167Z,29.40
2019-05-09T00:41:58.343Z,30.57
2019-05-09T00:44:29.893Z,31.57
2019-05-09T00:47:07.963Z,31.65
2019-05-09T00:49:38.613Z,32.17
2019-05-09T00:52:09.376Z,32.10
2019-05-09T00:54:39.435Z,32.10
2019-05-09T00:57:13.628Z,32.20
2019-05-09T00:59:44.645Z,32.20
2019-05-09T01:02:15.564Z,33.80
2019-05-09T01:04:45.622Z,32.50
2019-05-09T01:07:16.405Z,32.58
2019-05-09T01:09:47.120Z,34.98
2019-05-09T01:12:17.912Z,33.83
2019-05-09T01:14:47.889Z,34.20
2019-05-09T01:17:19.574Z,33.90
2019-05-09T01:19:49.749Z,33.40
2019-05-09T01:22:20.632Z,32.38
2019-05-09T01:24:53.292Z,33.45
2019-05-09T01:27:23.411Z,32.53
2019-05-09T01:29:53.584Z,33.35
2019-05-09T01:32:46.922Z,34.05
2019-05-09T01:35:17.012Z,33.17
2019-05-09T01:37:47.193Z,33.00
2019-05-09T01:40:20.010Z,32.67
2019-05-09T01:42:56.706Z,33.78
2019-05-09T01:45:26.879Z,33.83
2019-05-09T01:47:57.344Z,32.00
2019-05-09T01:50:28.152Z,34.27
2019-05-09T01:56:00.775Z,32.17
2019-05-09T01:58:34.286Z,31.50
2019-05-09T02:01:06.107Z,32.87
2019-05-09T02:03:36.443Z,31.30
2019-05-09T02:06:07.381Z,30.15
2019-05-09T02:08:37.456Z,28.47
2019-05-09T02:11:08.496Z,29.15
2019-05-09T02:13:38.567Z,29.48
2019-05-09T02:16:10.846Z,29.55
2019-05-09T02:18:48.327Z,28.00
2019-05-09T02:21:29.825Z,28.52
2019-05-09T02:23:59.994Z,26.23
2019-05-09T02:26:30.808Z,26.42
2019-05-09T02:29:03.227Z,27.05
2019-05-09T02:31:35.333Z,25.40
2019-05-09T02:34:06.264Z,25.62
2019-05-09T02:36:38.496Z,24.43
2019-05-09T02:39:09.352Z,24.95
2019-05-09T02:41:59.800Z,26.50
2019-05-09T02:44:19.716Z,26.10
2019-05-09T02:46:51.684Z,24.80
2019-05-09T02:49:21.772Z,25.25
2019-05-09T02:51:51.925Z,24.20
2019-05-09T02:54:21.922Z,22.45
2019-05-09T02:56:54.843Z,21.37
2019-05-09T02:59:29.713Z,21.47
2019-05-09T03:02:19.594Z,21.85
2019-05-09T03:04:49.539Z,23.42
2019-05-09T03:07:21.825Z,21.40
2019-05-09T03:09:51.828Z,20.43
2019-05-09T03:12:31.159Z,20.95
2019-05-09T03:15:13.668Z,21.50
2019-05-09T03:17:44.547Z,21.75
2019-05-09T03:20:28.892Z,21.10
2019-05-09T03:22:58.625Z,21.25
2019-05-09T03:25:29.785Z,20.67
2019-05-09T03:28:01.615Z,19.95
2019-05-09T03:30:33.827Z,20.92
2019-05-09T03:33:04.458Z,20.10
2019-05-09T03:35:37.778Z,19.90
2019-05-09T03:38:08.468Z,20.50
2019-05-09T03:40:39.421Z,20.68
2019-05-09T03:43:09.486Z,21.62
2019-05-09T03:45:48.098Z,21.05
2019-05-09T03:48:25.704Z,21.90
2019-05-09T03:50:58.741Z,20.62
2019-05-09T03:53:29.387Z,20.85
2019-05-09T03:56:01.612Z,23.35
2019-05-09T03:58:32.356Z,22.05
2019-05-09T04:01:02.315Z,23.20
2019-05-09T04:03:32.298Z,21.07
2019-05-09T04:06:03.159Z,23.85
2019-05-09T04:08:33.850Z,25.97
2019-05-09T04:11:04.491Z,25.12
2019-05-09T04:13:38.390Z,24.65
2019-05-09T04:16:07.784Z,24.37
2019-05-09T04:18:40.312Z,24.95
2019-05-09T04:21:20.442Z,22.93
2019-05-09T04:23:51.210Z,23.18
2019-05-09T04:26:28.652Z,23.52
2019-05-09T04:28:59.499Z,23.73
2019-05-09T04:31:30.256Z,24.18
2019-05-09T04:34:01.831Z,24.65
2019-05-09T04:36:40.846Z,24.03
2019-05-09T04:39:18.230Z,28.95
2019-05-09T04:41:45.192Z,24.18
2019-05-09T04:44:20.914Z,24.35
2019-05-09T04:46:54.102Z,28.90
2019-05-09T04:49:22.238Z,25.30
2019-05-09T04:51:52.986Z,25.23
2019-05-09T04:54:23.764Z,22.40
2019-05-09T04:56:57.338Z,23.32
2019-05-09T04:59:37.232Z,24.20
2019-05-09T05:02:14.835Z,22.52
2019-05-09T05:04:44.902Z,23.98
2019-05-09T05:07:18.044Z,24.92
2019-05-09T05:09:53.034Z,23.32
2019-05-09T05:12:23.600Z,23.12
2019-05-09T05:14:53.757Z,22.20
2019-05-09T05:17:23.827Z,23.38
2019-05-09T05:19:55.022Z,22.70
2019-05-09T05:22:38.533Z,23.32
2019-05-09T05:25:12.459Z,20.50
2019-05-09T05:27:42.508Z,20.23
2019-05-09T05:30:17.829Z,20.40
2019-05-09T05:32:57.688Z,20.70
2019-05-09T05:35:34.884Z,19.90
2019-05-09T05:38:05.017Z,20.68
2019-05-09T05:40:43.675Z,34.65
2019-05-09T05:43:08.794Z,38.70
2019-05-09T05:45:40.770Z,26.80
2019-05-09T05:48:13.027Z,24.35
2019-05-09T05:50:43.758Z,19.90
2019-05-09T05:53:14.434Z,21.33
2019-05-09T05:55:45.137Z,19.73
2019-05-09T05:58:17.863Z,18.65
2019-05-09T06:00:48.090Z,18.95
2019-05-09T06:03:18.992Z,19.70
2019-05-09T06:05:51.755Z,18.73
2019-05-09T06:08:22.040Z,18.42
2019-05-09T06:10:52.021Z,18.23
2019-05-09T06:13:22.654Z,17.67
2019-05-09T06:15:53.199Z,51.35
2019-05-09T06:18:23.846Z,52.20
2019-05-09T06:20:54.526Z,26.55
2019-05-09T06:23:25.281Z,21.05
2019-05-09T06:25:58.489Z,19.20
2019-05-09T06:28:27.781Z,17.33
2019-05-09T06:30:58.648Z,17.35
2019-05-09T06:33:30.002Z,17.05
2019-05-09T06:36:00.153Z,18.12
2019-05-09T06:38:30.969Z,17.07
2019-05-09T06:41:01.614Z,17.23
2019-05-09T06:43:39.204Z,17.57
2019-05-09T06:46:09.664Z,18.35
2019-05-09T06:49:21.288Z,17.42
2019-05-09T06:51:38.742Z,20.13
2019-05-09T06:54:11.665Z,17.30
2019-05-09T06:56:47.427Z,17.12
2019-05-09T06:59:31.977Z,14.93
2019-05-09T07:02:04.250Z,14.47
2019-05-09T07:04:38.021Z,13.60
2019-05-09T07:07:11.950Z,13.93
2019-05-09T07:09:45.058Z,24.70
2019-05-09T07:12:17.924Z,18.40
2019-05-09T07:14:48.676Z,16.70
2019-05-09T07:17:19.503Z,15.78
2019-05-09T07:20:08.975Z,13.50
2019-05-09T07:22:48.106Z,12.28
2019-05-09T07:25:20.170Z,13.15
2019-05-09T07:27:50.256Z,13.70
2019-05-09T07:30:28.860Z,12.65
2019-05-09T07:32:59.611Z,14.10
2019-05-09T07:35:29.769Z,14.90
2019-05-09T07:38:00.424Z,14.23
2019-05-09T07:40:32.880Z,15.78
2019-05-09T07:43:07.534Z,17.00
2019-05-09T07:45:38.407Z,16.57
2019-05-09T07:48:09.245Z,15.90
2019-05-09T07:50:41.179Z,15.32
2019-05-09T07:53:13.375Z,15.05
2019-05-09T07:55:43.569Z,16.45
2019-05-09T07:58:14.508Z,16.32
2019-05-09T08:00:48.297Z,17.50
2019-05-09T08:03:19.087Z,17.57
2019-05-09T08:05:49.855Z,18.40
2019-05-09T08:08:20.415Z,17.65
2019-05-09T08:10:50.561Z,16.93
2019-05-09T08:13:21.463Z,16.55
2019-05-09T08:15:52.474Z,16.30
2019-05-09T08:18:23.112Z,16.60
2019-05-09T08:20:53.780Z,16.40
2019-05-09T08:23:24.420Z,17.10
2019-05-09T08:25:57.900Z,17.85
2019-05-09T08:28:28.223Z,16.55
2019-05-09T08:30:58.953Z,16.07
2019-05-09T08:33:30.905Z,17.15
2019-05-09T08:36:02.507Z,14.20
2019-05-09T08:38:33.256Z,14.33
2019-05-09T08:41:09.823Z,15.45
2019-05-09T08:43:41.172Z,14.73
2019-05-09T08:46:12.237Z,14.70
2019-05-09T08:48:45.086Z,14.50
2019-05-09T08:51:18.123Z,15.48
2019-05-09T08:53:48.875Z,14.53
2019-05-09T08:56:19.677Z,14.07
2019-05-09T08:58:51.315Z,13.60
2019-05-09T09:01:30.746Z,13.60
2019-05-09T09:03:57.440Z,14.03
2019-05-09T09:06:27.893Z,14.47
2019-05-09T09:08:59.655Z,12.70
2019-05-09T09:11:30.449Z,13.35
2019-05-09T09:14:01.089Z,12.85
2019-05-09T09:16:31.781Z,12.37
2019-05-09T09:19:03.398Z,11.78
2019-05-09T09:21:34.159Z,10.48
2019-05-09T09:24:04.811Z,11.45
2019-05-09T09:26:38.190Z,11.57
2019-05-09T09:29:09.828Z,11.60
2019-05-09T09:31:40.590Z,12.45
2019-05-09T09:34:11.170Z,12.30
2019-05-09T09:36:41.863Z,12.82
2019-05-09T09:39:14.629Z,11.48
2019-05-09T09:41:48.150Z,12.10
2019-05-09T09:44:18.282Z,12.03
2019-05-09T09:46:50.060Z,11.83
2019-05-09T09:49:25.142Z,9.93
2019-05-09T09:51:58.018Z,10.28
2019-05-09T09:54:29.261Z,8.65
2019-05-09T09:57:01.494Z,10.82
2019-05-09T09:59:41.039Z,10.90
2019-05-09T10:02:27.788Z,10.35
2019-05-09T10:04:57.983Z,10.60
2019-05-09T10:07:28.755Z,10.30
2019-05-09T10:10:01.529Z,9.75
2019-05-09T10:12:34.034Z,9.13
2019-05-09T10:15:09.958Z,9.73
2019-05-09T10:17:45.134Z,9.20
2019-05-09T10:20:20.412Z,9.35
2019-05-09T10:22:59.702Z,8.88
2019-05-09T10:25:23.383Z,9.13
2019-05-09T10:27:54.976Z,10.05
2019-05-09T10:30:35.147Z,10.20
2019-05-09T10:33:08.799Z,8.23
2019-05-09T10:35:40.214Z,8.10
2019-05-09T10:38:11.056Z,9.30
2019-05-09T10:40:43.174Z,9.50
2019-05-09T10:46:51.454Z,8.28
2019-05-09T10:49:09.784Z,6.90
2019-05-09T10:51:41.319Z,8.00
2019-05-09T10:54:13.065Z,7.70
2019-05-09T10:56:45.468Z,8.50
2019-05-09T10:59:18.273Z,8.28
2019-05-09T11:01:49.754Z,8.23
2019-05-09T11:04:20.881Z,8.45
2019-05-09T11:06:51.503Z,7.25
2019-05-09T11:09:22.255Z,7.25
2019-05-09T11:11:52.980Z,7.08
2019-05-09T11:14:36.094Z,7.97
2019-05-09T11:17:07.985Z,7.72
2019-05-09T11:19:28.836Z,8.00
2019-05-09T11:21:59.715Z,7.28
2019-05-09T11:24:41.433Z,6.22
2019-05-09T11:27:08.467Z,7.45
2019-05-09T11:29:46.324Z,7.00
2019-05-09T11:32:17.883Z,7.12
2019-05-09T11:34:49.941Z,6.45
2019-05-09T11:37:22.297Z,6.53
2019-05-09T11:40:04.902Z,6.33
2019-05-09T11:42:48.115Z,5.72
2019-05-09T11:45:48.052Z,7.28
2019-05-09T11:48:30.588Z,6.62
2019-05-09T11:51:12.983Z,6.30
2019-05-09T11:53:57.961Z,6.40
2019-05-09T11:56:41.275Z,7.25
2019-05-09T11:59:14.718Z,6.60
2019-05-09T12:01:51.103Z,5.90
2019-05-09T12:04:23.596Z,5.10
2019-05-09T12:07:17.870Z,4.25
2019-05-09T12:16:33.647Z,4.30
2019-05-09T12:19:08.455Z,4.47
2019-05-09T12:21:47.552Z,3.47
2019-05-09T12:24:14.294Z,3.67
2019-05-09T12:26:48.002Z,4.00
2019-05-09T12:29:29.104Z,4.95
2019-05-09T12:32:08.725Z,4.40
2019-05-09T12:34:48.572Z,4.10
2019-05-09T12:37:21.666Z,4.25
2019-05-09T12:39:52.468Z,4.58
2019-05-09T12:42:23.693Z,4.50
2019-05-09T12:45:00.213Z,4.40
2019-05-09T12:47:31.680Z,4.47
2019-05-09T12:50:08.833Z,5.00
2019-05-09T12:52:39.835Z,4.08
2019-05-09T12:55:13.055Z,4.17
2019-05-09T12:57:59.494Z,4.03
2019-05-09T13:00:35.243Z,3.83
2019-05-09T13:03:08.223Z,4.55
2019-05-09T13:05:39.209Z,4.50
2019-05-09T13:08:10.398Z,4.25
2019-05-09T13:10:48.833Z,3.87
2019-05-09T13:13:22.761Z,5.03
2019-05-09T13:16:20.941Z,4.45
2019-05-09T13:19:12.095Z,4.12
2019-05-09T13:21:47.220Z,4.03
2019-05-09T13:24:47.510Z,3.65
2019-05-09T13:27:28.622Z,3.52
2019-05-09T13:30:02.412Z,3.40
2019-05-09T13:33:00.386Z,3.55
2019-05-09T13:35:42.943Z,3.80
2019-05-09T13:38:30.145Z,3.83
2019-05-09T13:41:29.377Z,3.20
2019-05-09T13:44:05.960Z,3.20
2019-05-09T13:46:38.849Z,3.33
2019-05-09T13:49:15.427Z,3.30
2019-05-09T13:51:55.166Z,3.15
2019-05-09T13:54:39.523Z,3.40
2019-05-09T13:57:14.176Z,3.02
2019-05-09T13:59:48.844Z,3.40
2019-05-09T14:02:29.140Z,3.30
2019-05-09T14:05:29.246Z,4.22
2019-05-09T14:08:04.465Z,3.65
2019-05-09T14:11:04.682Z,3.98
2019-05-09T14:13:38.578Z,4.15
2019-05-09T14:16:19.258Z,4.20
2019-05-09T14:18:41.825Z,4.42
2019-05-09T14:21:12.593Z,4.75
2019-05-09T14:23:58.915Z,4.33
2019-05-09T14:26:28.011Z,4.67
2019-05-09T14:28:58.960Z,4.10
2019-05-09T14:31:32.530Z,4.37
2019-05-09T14:34:03.192Z,4.10
2019-05-09T14:36:34.076Z,3.92
2019-05-09T14:39:09.513Z,4.30
2019-05-09T14:41:40.301Z,4.47
2019-05-09T14:44:10.948Z,3.80
2019-05-09T14:46:41.703Z,4.40
2019-05-09T14:49:13.498Z,4.67
2019-05-09T14:51:44.387Z,4.47
2019-05-09T14:54:15.020Z,3.70
2019-05-09T14:56:48.377Z,3.90
2019-05-09T14:59:18.632Z,4.22
2019-05-09T15:01:49.906Z,3.50
2019-05-09T15:04:20.628Z,4.10
2019-05-09T15:06:51.268Z,4.40
2019-05-09T15:09:23.066Z,5.00
2019-05-09T15:11:55.192Z,4.42
2019-05-09T15:14:28.742Z,5.15
2019-05-09T15:16:58.882Z,4.40
2019-05-09T15:19:29.542Z,4.08
2019-05-09T15:22:00.968Z,4.42
2019-05-09T15:24:31.670Z,4.03
2019-05-09T15:27:02.316Z,5.20
2019-05-09T15:29:32.995Z,4.67
2019-05-09T15:32:11.688Z,4.85
2019-05-09T15:34:38.405Z,5.00
2019-05-09T15:37:09.096Z,4.87
2019-05-09T15:39:39.632Z,4.12
2019-05-09T15:42:10.481Z,4.25
2019-05-09T15:44:41.131Z,3.95
2019-05-09T15:47:18.046Z,4.40
2019-05-09T15:49:49.424Z,3.60
2019-05-09T15:52:20.381Z,4.35
2019-05-09T15:54:51.040Z,3.85
2019-05-09T15:57:21.739Z,4.80
2019-05-09T15:59:54.379Z,4.58
2019-05-09T16:02:28.209Z,4.87
2019-05-09T16:05:00.451Z,4.92
2019-05-09T16:07:31.308Z,5.30
2019-05-09T16:10:08.630Z,4.20
2019-05-09T16:12:38.980Z,3.90
2019-05-09T16:15:09.858Z,4.05
2019-05-09T16:17:40.627Z,4.75
2019-05-09T16:20:11.418Z,5.35
2019-05-09T16:22:42.131Z,5.40
2019-05-09T16:25:13.796Z,4.55
2019-05-09T16:27:44.459Z,4.15
2019-05-09T16:30:15.491Z,6.20
2019-05-09T16:32:48.025Z,5.50
2019-05-09T16:35:18.773Z,5.03
2019-05-09T16:38:01.311Z,5.03
2019-05-09T16:40:21.811Z,4.62
2019-05-09T16:42:52.738Z,4.15
2019-05-09T16:45:23.474Z,4.60
2019-05-09T16:47:54.203Z,4.37
2019-05-09T16:50:24.768Z,5.65
2019-05-09T16:52:58.362Z,5.15
2019-05-09T16:55:31.370Z,4.58
2019-05-09T16:58:01.718Z,4.75
2019-05-09T17:00:47.635Z,4.92
2019-05-09T17:03:17.856Z,5.95
2019-05-09T17:05:49.090Z,5.42
2019-05-09T17:08:19.706Z,6.22
2019-05-09T17:10:50.428Z,5.40
2019-05-09T17:13:21.057Z,6.80
2019-05-09T17:15:51.612Z,6.37
2019-05-09T17:18:23.462Z,7.17
2019-05-09T17:27:21.923Z,6.53
2019-05-09T17:29:54.856Z,5.95
2019-05-09T17:32:30.257Z,5.35
2019-05-09T17:35:06.362Z,6.28
2019-05-09T17:38:03.244Z,5.92
2019-05-09T17:40:40.530Z,5.60
2019-05-09T17:43:20.362Z,6.00
2019-05-09T17:46:02.462Z,5.95
2019-05-09T17:49:00.533Z,6.22
2019-05-09T17:51:41.058Z,6.50
2019-05-09T17:54:32.373Z,6.33
2019-05-09T17:57:42.010Z,6.20
2019-05-09T18:03:29.163Z,6.03
2019-05-09T18:06:12.388Z,6.67
2019-05-09T18:09:13.564Z,6.47
2019-05-09T18:11:48.262Z,5.97
2019-05-09T18:14:27.477Z,6.10
2019-05-09T18:17:08.238Z,5.60
2019-05-09T18:20:10.732Z,12.37
2019-05-09T18:22:48.895Z,7.90
2019-05-09T18:25:28.548Z,6.10
2019-05-09T18:28:10.247Z,6.00
2019-05-09T18:30:53.211Z,7.05
2019-05-09T18:33:31.795Z,6.22
2019-05-09T18:36:40.539Z,6.75
2019-05-09T18:39:30.589Z,6.50
2019-05-09T18:43:01.162Z,7.22
2019-05-09T18:51:46.688Z,5.67
2019-05-09T18:54:28.641Z,6.45
2019-05-09T18:57:03.249Z,6.10
2019-05-09T18:59:34.345Z,7.37
2019-05-09T19:02:05.111Z,11.83
2019-05-09T19:04:35.760Z,9.15
2019-05-09T19:07:21.291Z,28.20
2019-05-09T19:09:38.789Z,40.28
2019-05-09T19:12:09.489Z,29.98
2019-05-09T19:14:40.211Z,16.23
2019-05-09T19:17:28.808Z,17.87
2019-05-09T19:20:01.148Z,14.78
2019-05-09T19:22:32.299Z,12.50
2019-05-09T19:25:02.859Z,22.90
2019-05-09T19:27:33.774Z,12.07
2019-05-09T19:30:08.721Z,9.73
2019-05-09T19:32:39.467Z,8.20
2019-05-09T19:35:10.214Z,8.20
2019-05-09T19:37:41.919Z,8.68
2019-05-09T19:40:13.338Z,9.50
2019-05-09T19:42:44.194Z,10.10
2019-05-09T19:45:15.813Z,9.60
2019-05-09T19:47:47.935Z,9.60
2019-05-09T19:52:55.063Z,10.43
2019-05-09T19:55:25.720Z,10.18
2019-05-09T19:57:56.521Z,10.40
2019-05-09T20:00:28.233Z,10.40
2019-05-09T20:02:58.884Z,9.80
2019-05-09T20:05:29.611Z,8.70
2019-05-09T20:08:00.450Z,8.40
2019-05-09T20:10:50.151Z,7.83
2019-05-09T20:13:40.702Z,7.33
2019-05-09T20:16:11.466Z,6.12
2019-05-09T20:18:43.257Z,5.55
2019-05-09T20:21:13.921Z,4.20
2019-05-09T20:23:44.760Z,5.83
2019-05-09T20:26:15.424Z,7.03
2019-05-09T20:28:52.283Z,4.37
2019-05-09T20:31:23.002Z,4.58
2019-05-09T20:33:53.724Z,2.70
2019-05-09T20:36:24.487Z,2.37
2019-05-09T20:39:01.146Z,2.30
2019-05-09T20:41:33.975Z,2.00
2019-05-09T20:44:05.104Z,2.10
2019-05-09T20:46:36.110Z,2.00
2019-05-09T20:49:09.228Z,1.90
2019-05-09T20:51:40.135Z,5.03
2019-05-09T20:54:20.523Z,7.58
2019-05-09T20:56:43.569Z,4.72
2019-05-09T20:59:15.751Z,6.12
2019-05-09T21:01:46.695Z,3.60
2019-05-09T21:04:17.745Z,3.90
2019-05-09T21:06:48.770Z,6.22
2019-05-09T21:09:25.474Z,4.45
2019-05-09T21:11:56.553Z,4.37
2019-05-09T21:14:27.468Z,2.92
2019-05-09T21:16:58.408Z,3.00
2019-05-09T21:19:30.400Z,2.20
2019-05-09T21:22:01.300Z,1.82
2019-05-09T21:24:32.293Z,1.80
2019-05-09T21:27:03.085Z,1.40
2019-05-09T21:29:36.150Z,1.30
2019-05-09T21:32:06.859Z,1.60
2019-05-09T21:34:37.655Z,1.55
2019-05-09T21:37:08.320Z,1.62
2019-05-09T21:39:42.126Z,2.00
2019-05-09T21:42:12.837Z,1.67
2019-05-09T21:44:43.563Z,1.52
2019-05-09T21:47:15.586Z,1.60
2019-05-09T21:49:47.323Z,1.60
2019-05-09T21:52:19.189Z,5.78
2019-05-09T21:54:49.941Z,7.42
2019-05-09T21:57:21.896Z,9.23
2019-05-09T21:59:55.816Z,15.25
2019-05-09T22:02:26.612Z,19.57
2019-05-09T22:04:57.510Z,16.70
2019-05-09T22:07:29.735Z,22.65
2019-05-09T22:10:02.734Z,20.80
2019-05-09T22:12:34.092Z,24.70
2019-05-09T22:15:06.535Z,34.08
2019-05-09T22:17:40.278Z,32.80
2019-05-09T22:20:14.840Z,40.00
2019-05-09T22:22:45.501Z,11.20
2019-05-09T22:25:17.147Z,6.87
2019-05-09T22:27:47.794Z,6.60
2019-05-09T22:30:20.174Z,5.12
2019-05-09T22:32:50.827Z,4.65
2019-05-09T22:35:21.587Z,4.40
2019-05-09T22:37:52.360Z,3.60
2019-05-09T22:40:25.040Z,3.47
2019-05-09T22:42:55.759Z,3.55
2019-05-09T22:45:26.631Z,2.77
2019-05-09T22:47:57.379Z,3.45
2019-05-09T22:50:29.394Z,3.12
2019-05-09T22:53:00.072Z,2.75
2019-05-09T22:55:30.812Z,2.50
2019-05-09T22:58:01.635Z,2.60
2019-05-09T23:00:34.393Z,2.62
2019-05-09T23:03:05.136Z,2.30
2019-05-09T23:05:35.792Z,2.10
2019-05-09T23:08:06.531Z,1.90
2019-05-09T23:10:38.766Z,2.10
2019-05-09T23:13:09.392Z,2.12
2019-05-09T23:15:40.189Z,2.15
2019-05-09T23:18:10.266Z,2.08
2019-05-09T23:23:28.399Z,1.85
2019-05-09T23:26:00.600Z,1.80
2019-05-09T23:28:31.363Z,1.50
2019-05-09T23:31:03.723Z,1.82
2019-05-09T23:33:37.038Z,1.67
2019-05-09T23:36:07.766Z,1.70
2019-05-09T23:38:56.151Z,1.85
2019-05-09T23:41:27.976Z,1.90
2019-05-09T23:43:59.675Z,1.70
2019-05-09T23:46:29.771Z,1.62
2019-05-09T23:49:03.877Z,1.60
2019-05-09T23:51:48.334Z,1.70
2019-05-09T23:54:47.870Z,1.45
2019-05-09T23:57:30.088Z,1.80
